KMDH Weather | Aviation | SIU

Home
Southern Illinois University

CONTACT

SIU.EDU

Aviation - Weather

College of Applied Sciences and Arts

KMDH Weather

NOTICE: Although all weather products are taken from the National Weather Service, this data should be used only as a supplement to a formal weather briefing.

Last Updated: Wednesday, October 21st, 2020, 12:01 am
Information on this page is updated every 5 minutes.


METARS

KMDH 210455Z AUTO 21003KT 1SM BR VV007 17/15 A3005 RMK AO2 T01670150

KMDH 210452Z AUTO 00000KT 2SM BR CLR 16/15 A3005 RMK AO2 SLP174 T01560150

KMDH 210352Z AUTO 20006KT 5SM BR CLR 16/15 A3004 RMK AO2 SLP173 T01560150

KMDH 210326Z AUTO 17004KT 3SM BR FEW006 FEW100 14/13 A3004 RMK AO2 T01390128

KMDH 210315Z AUTO 00000KT 2SM BR SCT006 BKN100 13/13 A3004 RMK AO2 T01330128

KMDH 210313Z AUTO 00000KT 1 3/4SM BR BKN006 BKN100 13/13 A3004 RMK AO2 T01330128

KMDH 210303Z AUTO 00000KT 2SM BR OVC006 13/12 A3004 RMK AO2 T01280122

KMDH 210252Z AUTO 15003KT 1/2SM FG VV006 13/12 A3004 RMK AO2 TSE0154 SLP173

KMDH 210232Z AUTO 00000KT 1/2SM FG VV005 13/12 A3005 RMK AO2 TSE0154 T01280122

KMWA 210455Z AUTO 20005KT 7SM BKN100 18/18 A3006 RMK AO2 T01760176

KMWA 210435Z AUTO 20005KT 7SM CLR 17/17 A3006 RMK AO2 T01700170

KMWA 210415Z AUTO 19004KT 5SM BR CLR 17/17 A3006 RMK AO2 LTG DSNT N AND NE

KMWA 210355Z AUTO 21005KT 5SM BR SCT095 17/17 A3006 RMK AO2 LTG DSNT N T01670167

KMWA 210335Z AUTO 19005KT 7SM SCT095 17/17 A3005 RMK AO2 LTG DSNT NE AND NW

KMWA 210315Z AUTO 18003KT 5SM BR SCT075 SCT100 16/16 A3006 RMK AO2 LTG DSNT NE

KMWA 210255Z AUTO 20003KT 7SM SCT075 SCT100 16/16 A3006 RMK AO2 LTG DSNT N AND

KMWA 210235Z AUTO 20003KT 4SM BR CLR 15/15 A3006 RMK AO2 LTG DSNT N T01470147

KMWA 210215Z AUTO 19004KT 4SM BR CLR 15/15 A3005 RMK AO2 LTG DSNT N AND NW

KCGI 210453Z AUTO 00000KT 3SM BR SCT002 OVC095 14/13 A3006 RMK AO2 SLP179

KCGI 210450Z AUTO 00000KT 2 1/2SM BR SCT002 OVC095 14/13 A3006 RMK AO2

KCGI 210443Z AUTO 00000KT 1 3/4SM BR SCT003 BKN095 14/13 A3006 RMK AO2 T01390128

KCGI 210436Z AUTO 30003KT 1/2SM R10/2600VP6000FT FG BKN003 BKN095 13/13 A3006

KCGI 210431Z AUTO 00000KT 1/4SM R10/2600V5000FT FG SCT005 BKN095 13/12 A3005 RMK

KCGI 210423Z AUTO 00000KT 1/2SM R10/3500VP6000FT FG FEW005 FEW095 13/13 A3005

KCGI 210408Z AUTO 00000KT 3/4SM R10/2800VP6000FT BR VV004 13/13 A3005 RMK AO2

KCGI 210406Z AUTO 00000KT 1 1/4SM R10/2800VP6000FT BR SCT004 13/13 A3005 RMK AO2

KCGI 210353Z AUTO 00000KT 1SM R10/P6000FT BR VV004 14/13 A3005 RMK AO2 SLP175

KCGI 210349Z AUTO 00000KT 1 1/2SM BR FEW005 13/13 A3005 RMK AO2

KCGI 210339Z AUTO 00000KT 2 1/2SM BR FEW046 14/13 A3005 RMK AO2 T01390133

KCGI 210309Z AUTO 27003KT 3SM BR SCT047 BKN055 OVC070 14/13 A3006 RMK AO2

KCGI 210304Z AUTO 24003KT 1 3/4SM R10/6000VP6000FT BR BKN050 BKN060 OVC070 14/14

KCGI 210253Z AUTO 26004KT 3/4SM R10/4500VP6000FT BR FEW005 BKN055 OVC075 14/13

KCGI 210223Z AUTO 00000KT 1/2SM R10/2800V4000FT FG SCT003 OVC085 14/13 A3005 RMK

KCGI 210213Z AUTO 00000KT 1/4SM R10/2000V3500FT FG SCT002 OVC085 13/13 A3005 RMK

KSAR 210421Z AUTO 17007KT 7SM VCTS BKN070 OVC080 16/16 A3004 RMK AO2 LTG DSNT W

KSAR 210401Z AUTO 17008KT 7SM BKN070 BKN080 OVC100 16/16 A3004 RMK AO2 LTG DSNT

KSAR 210341Z AUTO 18008KT 7SM VCTS OVC070 16/16 A3004 RMK AO2 LTG DSNT W THRU NE

KSAR 210321Z AUTO 19006KT 5SM BR SCT003 OVC070 16/16 A3004 RMK AO2 LTG DSNT W

KSAR 210301Z AUTO 19005KT 5SM VCTS BR OVC003 16/15 A3004 RMK AO2 LTG DSNT NW

KSAR 210241Z AUTO 19006KT 5SM VCTS BR OVC003 15/15 A3004 RMK AO2 LTG DSNT N AND

KSAR 210221Z AUTO 20006KT 5SM VCTS BR OVC003 16/16 A3004 RMK AO2 LTG DSNT N AND

KFAM 210456Z AUTO 20005KT 7SM BKN095 16/16 A3006 RMK AO2 SLP189 T01610161

KFAM 210356Z AUTO 19006KT 8SM CLR 16/16 A3004 RMK AO2 SLP182 T01560156

KFAM 210256Z AUTO 19007KT 8SM BKN070 15/15 A3005 RMK AO2 RAB24E35 SLP185 P0000

KFAM 210225Z AUTO 18007KT 9SM -RA SCT003 BKN075 OVC090 15/15 A3005 RMK AO2 RAB24

KMVN 210456Z AUTO 20005KT 2 1/2SM BR FEW070 BKN095 BKN120 15/15 A3003 RMK AO2

KMVN 210445Z AUTO 20005KT 2SM BR FEW007 BKN095 BKN120 15/15 A3003 RMK AO2

KMVN 210442Z AUTO 19005KT 1SM BR FEW007 SCT100 BKN120 14/14 A3003 RMK AO2

KMVN 210437Z AUTO 19005KT 1/2SM FG FEW007 SCT070 BKN110 14/14 A3003 RMK AO2

KMVN 210425Z AUTO 21004KT 1/2SM FG SCT070 14/14 A3004 RMK AO2

KMVN 210421Z AUTO 22004KT 1SM BR BKN070 14/14 A3004 RMK AO2

KMVN 210413Z AUTO 23004KT 2SM BR BKN070 14/14 A3004 RMK AO2

KMVN 210356Z AUTO 21005KT 4SM BR SCT070 16/16 A3004 RMK AO2 SLP177 T01560156

KMVN 210340Z AUTO 23007KT 5SM BR FEW005 16/16 A3004 RMK AO2

KMVN 210256Z AUTO 22006KT 5SM BR CLR 16/16 A3003 RMK AO2 SLP172 T01560156 58004

KMVN 210211Z AUTO 20005KT 4SM BR SCT004 OVC090 15/15 A3003 RMK AO2

KHSB 210455Z AUTO 19006KT 10SM CLR 18/16 A3005 RMK AO2 LTG DSNT N AND NW

KHSB 210435Z AUTO 18005KT 1 3/4SM BR VV007 15/13 A3005 RMK AO2 LTG DSNT NW THRU

KHSB 210415Z AUTO 16003KT 1 3/4SM BR VV007 14/12 A3006 RMK AO2 LTG DSNT NW THRU

KCIR 210455Z 2SM CLR 13/13 A3007 RMK AO2 T01310131

KCIR 210435Z 1SM VV007 13/13 A3007 RMK AO2 T01260126

KCIR 210415Z 1SM VV007 14/14 A3007 RMK AO2 T01370137

KPAH 210453Z AUTO 18004KT 10SM CLR 20/17 A3007 RMK AO2 SLP179 T02000172

KFAM 210456Z AUTO 20005KT 7SM BKN095 16/16 A3006 RMK AO2 SLP189 T01610161

KBLV 210456Z AUTO 31007KT 9SM OVC006 15/15 A3003 RMK AO2 RAB24E36 OVC V BKN

KBLV 210436Z AUTO 30004KT 6SM BR BKN006 OVC046 15/15 A3002 RMK AO2 RAB24E36

KBLV 210424Z AUTO 32006KT 7SM -RA BKN006 BKN060 15/15 A3001 RMK AO2 RAB24 CIG

KBLV 210416Z AUTO 32004KT 8SM BKN006 BKN060 15/15 A3002 RMK AO2 CIG 006V060

KBLV 210406Z AUTO 30005KT 8SM FEW007 SCT060 16/16 A3002 RMK AO2 PRESRR SLP169 $

KSUS 210454Z AUTO 00000KT 4SM -RA BR SCT016 OVC021 14/13 A3004 RMK AO2 LTG DSNT

KSUS 210428Z AUTO 00000KT 10SM SCT005 BKN015 OVC019 14/13 A3004 RMK AO2 LTG DSNT

KSUS 210418Z AUTO 30004KT 9SM -RA BKN006 BKN012 OVC019 13/13 A3004 RMK AO2 P0012

KSUS 210410Z AUTO 32008G17KT 2 1/2SM R08R/4500VP6000FT RA BR OVC006 14/13 A3004

KCPS 210428Z AUTO 34004KT 6SM BR BKN008 OVC044 14/14 A3005 RMK AO2 LTG DSNT NW

KCPS 210421Z AUTO 32004KT 7SM BKN010 OVC044 14/14 A3004 RMK AO2 T01440144

KCPS 210411Z AUTO 00000KT 8SM SCT008 BKN044 15/14 A3003 RMK AO2 T01500144

KSTL 210442Z 27006KT 5SM -RA BR BKN003 OVC011 14/13 A3005 RMK AO2 LTG DSNT NE

KSTL 210433Z 29004KT 4SM -TSRA BR OVC002CB 14/12 A3005 RMK AO2 RAB0358 TSB20

KSTL 210421Z 31007KT 1 3/4SM -TSRA BR OVC002CB 14/12 A3006 RMK AO2 RAB0358 TSB20

KSTL 210412Z 33009KT 1 3/4SM RA BR OVC002 14/13 A3005 RMK AO2 LTG DSNT N RAB0358

KSTL 210403Z 31011KT 2SM -RA BR OVC004 14/13 A3005 RMK AO2 LTG DSNT N RAB0358

KTBN 210452Z AUTO 33006KT 10SM OVC002 13/13 A3007 RMK AO2

KTBN 210440Z AUTO 32008KT 5SM -RA BR OVC003 14/14 A3007 RMK AO2

KTBN 210435Z AUTO 34007KT 2 1/4SM +RA BR OVC003 14/14 A3006 RMK AO2 VIS 1 1/4V2

KTBN 210430Z AUTO 32013G22KT 1 1/4SM -RA BR OVC003 14/14 A3007 RMK AO2 VIS 1

KTBN 210426Z AUTO 34013G22KT 2 3/4SM BR OVC003 15/15 A3006 RMK AO2 VIS 2 3/4V7

KTBN 210421Z AUTO 32015KT 6SM BR OVC003 16/16 A3007 RMK AO2 DZE00RAB00E21 SLP184

KVIH 210453Z AUTO 32004KT 4SM BR BKN004 BKN008 OVC012 13/12 A3008 RMK AO2 LTG

KVIH 210425Z AUTO 31005KT 9SM OVC006 13/12 A3008 RMK AO2 LTG DSNT W-N

KVIH 210409Z AUTO 32004KT 5SM BR OVC004 12/12 A3008 RMK AO2 LTG DSNT W AND NW

KENL 210455Z AUTO 21008KT 5SM VCTS BR SCT065 BKN080 BKN110 17/17 A3002 RMK AO2

KENL 210435Z AUTO 18010KT 5SM VCTS BR SCT037 SCT075 BKN085 17/17 A3001 RMK AO2

KENL 210415Z AUTO 19010KT 5SM TS BR SCT005 BKN070 OVC090 17/17 A3001 RMK AO2 LTG

KMTO 210453Z AUTO 24010G18KT 1SM +TSRA BR FEW006 BKN017 OVC047 17/17 RMK AO2 LTG

KMTO 210447Z AUTO 25006KT 3/4SM +TSRA BR SCT008 BKN017 OVC036 17/17 RMK AO2 LTG

KMTO 210441Z AUTO 24005KT 1 1/4SM VCTS +RA BR SCT010 BKN022 OVC043 17/17 RMK AO2

KMTO 210430Z AUTO 23006KT 1/2SM +TSRA FG FEW005 FEW010 OVC015 17/16 RMK AO2 LTG

KMTO 210423Z AUTO 22005KT 3/4SM +TSRA BR FEW005 BKN010 OVC017 16/16 RMK AO2 LTG

KMTO 210406Z AUTO 24009G18KT 1 1/2SM +TSRA BR BKN005 BKN009 OVC013 16/16 RMK AO2

KMTO 210402Z AUTO 22009G17KT 2 1/2SM VCTS +RA BR BKN005 BKN009 OVC033 16/16 RMK

KFWC 210455Z AUTO 00000KT 4SM BR SCT080 16/16 A3003 RMK AO1 LTG DSNT NW THRU NE

KFWC 210435Z AUTO 00000KT 4SM VCTS BR CLR 16/16 A3003 RMK AO1 LTG DSNT W THRU NE

KFWC 210415Z AUTO 00000KT 5SM TS BR CLR 17/16 A3003 RMK AO1 LTG DSNT N AND NE

KCUL 210454Z AUTO 18010KT 10SM CLR 18/17 A3004 RMK AO2 LTG DSNT NW THRU NE

KCUL 210434Z AUTO 17010KT 7SM CLR 18/17 A3004 RMK AO2 LTG DSNT N AND NW

KCUL 210414Z AUTO 17009KT 5SM VCTS BR CLR 17/17 A3004 RMK AO2 LTG DSNT N AND NW

KEVV 210454Z AUTO 18007KT 9SM CLR 18/16 A3007 RMK AO2 SLP180 T01780161

KEVV 210443Z AUTO 18007KT 6SM BR CLR 17/15 A3007 RMK AO2 T01720150

KEVV 210436Z AUTO 19004KT 2 1/2SM BR CLR 16/14 A3007 RMK AO2 T01560144

KCEY 210455Z AUTO 16006KT 10SM CLR 19/17 A3010 RMK AO1

KCEY 210435Z AUTO 15005KT 10SM CLR 19/17 A3010 RMK AO1

KCEY 210415Z AUTO 15005KT 10SM CLR 19/17 A3010 RMK AO1

KHOP 210456Z 00000KT 10SM CLR 19/18 A3011 RMK AO2A SLPNO T01890181 $

KARG 210456Z AUTO 00000KT 3SM BR SCT002 14/14 A3007 RMK AO2 SLP182 T01390139

KARG 210445Z AUTO 00000KT 2SM BR BKN002 14/14 A3006 RMK AO2

KARG 210438Z AUTO 30003KT 1SM BR OVC002 14/14 A3007 RMK AO2 RVRNO

KJBR 210457Z AUTO 00000KT 1 3/4SM BR CLR 16/14 A3007 RMK AO2 T01560144 TSNO $

KJBR 210453Z AUTO 00000KT 3SM BR CLR 16/15 A3007 RMK AO2 SLP181 T01560150 TSNO $

KUNO 210450Z AUTO 17004KT 1 3/4SM BR OVC003 16/15 A3008 RMK AO2

KALN 210455Z AUTO 00000KT 3SM +RA OVC004 14/14 A3004 RMK AO2 P0008 T01350135

KALN 210435Z AUTO 27003KT 1 3/4SM /VCTSRA OVC004 14/14 A3005 RMK AO2 LTG DSNT N

KALN 210415Z AUTO 29003KT 3SM -VCTSRA OVC004 14/14 A3004 RMK AO2 LTG DSNT N NE

KALN 210455Z AUTO 00000KT 3SM +RA OVC004 14/14 A3004 RMK AO2 P0008 T01350135

KALN 210435Z AUTO 27003KT 1 3/4SM /VCTSRA OVC004 14/14 A3005 RMK AO2 LTG DSNT N

KALN 210415Z AUTO 29003KT 3SM -VCTSRA OVC004 14/14 A3004 RMK AO2 LTG DSNT N NE

KCOU 210454Z AUTO 26005KT 10SM BKN005 OVC037 11/09 A3009 RMK AO2 CIG 004V008

KCOU 210406Z AUTO 30005KT 10SM OVC006 11/09 A3007 RMK AO2 LTG DSNT SE AND S CIG

KSPI 210439Z 25010KT 6SM BR OVC005 12/12 A3003 RMK AO2 LTG DSNT S T01220122

KAJG 210435Z AUTO 21008KT 7SM VCTS CLR 17/16 A3003 RMK AO2 LTG DSNT NW THRU NE

KAJG 210415Z AUTO 22006KT 7SM VCTS CLR 17/16 A3004 RMK AO2 LTG DSNT W THRU NE

KDEC 210454Z AUTO 24008KT 8SM OVC005 14/14 A3002 RMK AO2 LTG DSNT SE SLP164

KDEC 210429Z AUTO 26009KT 7SM OVC005 14/14 A3001 RMK AO2 T01390139

KIJX 210435Z AUTO 22004KT 3SM BR OVC005 11/11 A3004 RMK AO2 LTG DSNT E AND SE

KIJX 210415Z AUTO 25004KT 4SM VCTS BR OVC003 11/11 A3003 RMK AO2 LTG DSNT E THRU


TAFS

KEVV 210201Z 2102/2124 VRB03KT 3SM BR BKN060

        TEMPO 2102/2105 2SM BR

        FM211100 VRB03KT P6SM BKN013

        FM211800 21003KT P6SM SCT016


Winds Aloft



Pilot Reports

No pilot reports found for area.



Area Forecast



Significant Weather

WAUS43 KKCI 210245 CHIS WA 210245 AIRMET SIERRA FOR IFR VALID UNTIL 210900 AIRMET IFR...ND SD NE KS MN IA MO WI LM LS MI LH IL IN KY FROM 60WNW INL TO 20ESE YQT TO 60WNW YVV TO 30SE ECK TO FWA TO CVG TO HNN TO 40SSW HNN TO 40NE DYR TO RZC TO OSW TO 50W LBL TO 40WSW MCI TO 60SE FSD TO 40WSW FSD TO 40N MOT TO 60WNW INL CIG BLW 010/VIS BLW 3SM PCPN/BR. CONDS CONTG BYD 09Z THRU 15Z. OTLK VALID 0900-1500Z AREA 1...IFR ND SD MN IA MO WI LM LS MI LH IL BOUNDED BY 60WNW INL-80WSW YQT-20SE YQT-60WNW YVV-50ESE ASP-GRR- 50WNW TVC-20NW BAE-20SSW JOT-50SSW BDF-40NNW UIN-50WNW IOW-30NW MSP-40N MOT-60WNW INL CIG BLW 010/VIS BLW 3SM BR. CONDS DVLPG 09-12Z. CONDS CONTG THRU 15Z. AREA 2...IFR ND SD NE BOUNDED BY 60WSW DIK-20SW ABR-60WNW FSD-30NNW ONL-20W LBF-70ENE BFF-40NNW BFF-70SW RAP-60WSW DIK CIG BLW 010/VIS BLW 3SM PCPN/BR. CONDS CONTG THRU 15Z.
WSUS31 KKCI 210355 SIGE CONVECTIVE SIGMET 14E VALID UNTIL 0555Z OH MI IN IL FROM 20ENE GIJ-40SSE DXO-10NE APE-50ENE FAM-30ENE STL-20ENE GIJ AREA EMBD TS MOV FROM 25045KT. TOPS ABV FL450. OUTLOOK VALID 210555-210955 AREA 1...FROM 170ESE CHS-170E PBI-60ENE PBI-90SE MIA-140SE MIA-90WSW EYW-110WSW PIE-RSW-TRV-50NNE CRG-170ESE CHS WST ISSUANCES EXPD. REFER TO MOST RECENT ACUS01 KWNS FROM STORM PREDICTION CENTER FOR SYNOPSIS AND METEOROLOGICAL DETAILS. AREA 2...FROM 50NW MKG-FNT-40SE DXO-ERI-40WSW EWC-40SE CVG-40E PXV-50NW MKG WST ISSUANCES EXPD. REFER TO MOST RECENT ACUS01 KWNS FROM STORM PREDICTION CENTER FOR SYNOPSIS AND METEOROLOGICAL DETAILS.